Time;durP1;ratioP1;P1;durP2;ratioP2;P2;SDS_P1;SDS_P2;PMS_P1;PMS_P2;Temp;Humidity;BMP_temperature;BMP_pressure;BME280_temperature;BME280_humidity;BME280_pressure;Samples;Min_cycle;Max_cycle;Signal;HPM_P1;HPM_P2
2021/07/04 00:01:12;;;;;;;8.77;7.87;;;25.20;54.50;;;;;;4840778;29;20953;-84
2021/07/04 00:03:53;;;;;;;8.70;8.00;;;25.30;54.50;;;;;;4823782;29;20453;-86
2021/07/04 00:06:25;;;;;;;8.70;8.00;;;25.30;54.50;;;;;;4838009;29;20469;-85
2021/07/04 00:09:05;;;;;;;8.87;8.07;;;25.30;54.50;;;;;;4839021;29;20423;-86
2021/07/04 00:11:35;;;;;;;8.57;7.77;;;25.30;54.40;;;;;;4822594;29;20966;-85
2021/07/04 00:14:07;;;;;;;8.90;8.00;;;25.30;54.50;;;;;;4838185;29;20412;-85
2021/07/04 00:16:47;;;;;;;;;;;;;;;;;;;;;
2021/07/04 00:19:21;;;;;;;9.30;8.40;;;25.30;54.40;;;;;;4842435;29;20483;-85
2021/07/04 00:21:58;;;;;;;9.27;8.37;;;25.30;54.40;;;;;;4841601;29;20426;-86
2021/07/04 00:24:32;;;;;;;8.90;8.13;;;25.30;54.40;;;;;;4812836;29;20424;-86
2021/07/04 00:27:04;;;;;;;8.40;7.60;;;25.30;54.40;;;;;;4842640;29;20453;-85
2021/07/04 00:29:46;;;;;;;9.10;8.30;;;25.30;54.40;;;;;;4840811;29;20486;-84
2021/07/04 00:32:34;;;;;;;8.50;7.43;;;25.30;54.40;;;;;;4825310;29;20436;-84
2021/07/04 00:35:33;;;;;;;8.20;7.37;;;25.30;54.30;;;;;;4839783;29;20910;-84
2021/07/04 00:38:21;;;;;;;8.37;7.57;;;25.30;54.40;;;;;;4820005;29;20522;-84
2021/07/04 00:41:01;;;;;;;8.40;7.67;;;25.30;54.40;;;;;;4823788;29;20442;-84
2021/07/04 00:43:48;;;;;;;8.20;7.50;;;25.30;54.40;;;;;;4858249;29;20415;-83
2021/07/04 00:46:32;;;;;;;7.83;7.13;;;25.30;54.40;;;;;;4843267;29;20552;-83
2021/07/04 00:49:21;;;;;;;;;;;;;;;;;;;;;
2021/07/04 00:52:13;;;;;;;7.73;7.00;;;25.30;54.50;;;;;;4861659;29;20439;-84
2021/07/04 00:54:54;;;;;;;;;;;;;;;;;;;;;
2021/07/04 00:57:38;;;;;;;7.97;7.17;;;25.30;54.50;;;;;;4840046;29;20491;-84
2021/07/04 01:00:38;;;;;;;7.60;6.90;;;25.30;54.40;;;;;;4894913;29;20489;-84
2021/07/04 01:03:19;;;;;;;7.87;7.17;;;25.30;54.40;;;;;;4877014;29;20423;-86
2021/07/04 01:05:48;;;;;;;8.20;7.40;;;25.30;54.50;;;;;;4877740;29;20526;-86
2021/07/04 01:08:24;;;;;;;7.10;6.50;;;25.30;54.50;;;;;;4874867;29;20427;-86
2021/07/04 01:10:57;;;;;;;7.53;6.80;;;25.30;54.50;;;;;;4880501;29;20508;-86
2021/07/04 01:13:44;;;;;;;;;;;;;;;;;;;;;
2021/07/04 01:16:24;;;;;;;8.13;7.43;;;25.30;54.50;;;;;;4896848;29;20486;-86
2021/07/04 01:19:07;;;;;;;8.03;7.23;;;25.30;54.50;;;;;;4880558;29;20472;-86
2021/07/04 01:21:43;;;;;;;;;;;;;;;;;;;;;
2021/07/04 01:24:33;;;;;;;7.73;7.03;;;25.30;54.40;;;;;;4892202;29;20452;-86
2021/07/04 01:27:24;;;;;;;7.77;7.03;;;25.30;54.40;;;;;;4886954;29;20418;-86
2021/07/04 01:29:52;;;;;;;8.30;7.60;;;25.30;54.40;;;;;;4878314;29;20449;-86
2021/07/04 01:32:21;;;;;;;8.00;7.20;;;25.30;54.50;;;;;;4878665;29;20445;-86
2021/07/04 01:35:08;;;;;;;8.40;7.60;;;25.30;54.50;;;;;;4877726;29;20431;-86
2021/07/04 01:37:34;;;;;;;7.07;6.47;;;25.30;54.50;;;;;;4878199;29;20464;-86
2021/07/04 01:40:01;;;;;;;7.93;7.23;;;25.30;54.40;;;;;;4894526;29;20501;-86
2021/07/04 01:42:28;;;;;;;7.70;6.97;;;25.30;54.50;;;;;;4867830;29;20439;-86
2021/07/04 01:44:55;;;;;;;9.00;8.13;;;25.30;54.40;;;;;;4862203;29;20429;-86
2021/07/04 01:47:23;;;;;;;8.47;7.67;;;25.30;54.40;;;;;;4874954;29;20471;-86
2021/07/04 01:49:54;;;;;;;8.20;7.40;;;25.30;54.40;;;;;;4877418;29;20422;-86
2021/07/04 01:52:33;;;;;;;8.10;7.30;;;25.30;54.40;;;;;;4884473;29;20426;-86
2021/07/04 01:55:11;;;;;;;;;;;;;;;;;;;;;
2021/07/04 01:57:41;;;;;;;8.30;7.50;;;25.30;54.40;;;;;;4890237;29;20529;-86
2021/07/04 02:00:36;;;;;;;8.23;7.47;;;25.30;54.40;;;;;;4871182;29;20431;-85
2021/07/04 02:03:11;;;;;;;9.30;8.50;;;25.30;54.40;;;;;;4857874;29;20495;-85
2021/07/04 02:05:59;;;;;;;7.23;6.53;;;25.30;54.40;;;;;;4890393;29;20924;-85
2021/07/04 02:08:29;;;;;;;7.73;7.10;;;25.30;54.40;;;;;;4880556;29;20441;-85
2021/07/04 02:11:10;;;;;;;7.30;6.60;;;25.30;54.40;;;;;;4880163;29;20462;-85
2021/07/04 02:14:10;;;;;;;7.87;7.10;;;25.30;54.40;;;;;;4894751;29;20418;-85
2021/07/04 02:16:40;;;;;;;7.77;7.07;;;25.30;54.40;;;;;;4840398;29;20439;-85
2021/07/04 02:19:21;;;;;;;7.00;6.40;;;25.30;54.50;;;;;;4841160;29;20464;-85
2021/07/04 02:22:01;;;;;;;7.17;6.53;;;25.20;54.40;;;;;;4857179;29;20431;-85
2021/07/04 02:24:31;;;;;;;7.63;6.90;;;25.20;54.40;;;;;;4839978;29;21017;-85
2021/07/04 02:27:10;;;;;;;7.33;6.63;;;25.20;54.40;;;;;;4828003;29;20444;-86
2021/07/04 02:29:45;;;;;;;7.70;7.00;;;25.20;54.40;;;;;;4843844;29;20507;-85
2021/07/04 02:32:21;;;;;;;8.70;7.80;;;25.20;54.40;;;;;;4843662;29;20525;-86
2021/07/04 02:35:11;;;;;;;7.33;6.63;;;25.20;54.40;;;;;;4856812;29;20442;-86
2021/07/04 02:37:41;;;;;;;7.70;7.00;;;25.20;54.40;;;;;;4839712;29;20482;-87
2021/07/04 02:40:16;;;;;;;8.90;6.70;;;25.20;54.40;;;;;;4883876;29;20422;-86
2021/07/04 02:43:08;;;;;;;7.70;7.00;;;25.10;54.30;;;;;;4882685;29;20417;-86
2021/07/04 02:45:38;;;;;;;7.10;6.50;;;25.20;54.40;;;;;;4889136;29;20422;-85
2021/07/04 02:48:16;;;;;;;7.40;6.70;;;25.10;54.30;;;;;;4895018;29;20430;-85
2021/07/04 02:50:59;;;;;;;7.50;6.80;;;25.20;54.40;;;;;;4880399;29;20437;-86
2021/07/04 02:53:29;;;;;;;8.00;7.20;;;25.20;54.40;;;;;;4898632;29;20431;-85
2021/07/04 02:56:00;;;;;;;7.70;7.00;;;25.10;54.40;;;;;;4915206;29;20479;-85
2021/07/04 02:58:26;;;;;;;7.23;6.53;;;25.20;54.50;;;;;;4929331;29;20460;-85
2021/07/04 03:01:04;;;;;;;;;;;;;;;;;;;;;
2021/07/04 03:03:36;;;;;;;7.73;7.10;;;25.10;54.50;;;;;;4938165;29;20470;-85
2021/07/04 03:06:19;;;;;;;;;;;;;;;;;;;;;
2021/07/04 03:09:01;;;;;;;7.10;6.40;;;25.10;54.40;;;;;;4927263;29;20467;-85
2021/07/04 03:11:37;;;;;;;7.77;7.07;;;25.10;54.40;;;;;;4932742;29;20514;-85
2021/07/04 03:14:25;;;;;;;7.70;7.00;;;25.10;54.50;;;;;;4917681;29;20427;-85
2021/07/04 03:16:57;;;;;;;7.10;6.50;;;25.10;54.40;;;;;;4929009;29;20503;-85
2021/07/04 03:19:32;;;;;;;6.07;5.53;;;25.10;54.50;;;;;;4919765;29;20459;-85
2021/07/04 03:22:07;;;;;;;6.30;5.70;;;25.10;54.50;;;;;;4932634;29;20446;-85
2021/07/04 03:24:39;;;;;;;6.93;6.30;;;25.10;54.50;;;;;;4932558;29;20437;-85
2021/07/04 03:27:35;;;;;;;7.10;6.40;;;25.10;54.50;;;;;;4932326;29;20511;-85
2021/07/04 03:30:06;;;;;;;6.40;5.80;;;25.10;54.50;;;;;;4932471;29;20423;-85
2021/07/04 03:32:56;;;;;;;6.37;5.77;;;25.10;54.50;;;;;;4932071;29;20926;-86
2021/07/04 03:35:29;;;;;;;7.37;6.43;;;25.10;54.50;;;;;;4948707;29;20456;-84
2021/07/04 03:38:18;;;;;;;7.00;6.30;;;25.10;54.50;;;;;;4924832;29;20460;-84
2021/07/04 03:40:58;;;;;;;7.73;6.97;;;25.10;54.50;;;;;;4933989;29;20388;-84
2021/07/04 03:43:33;;;;;;;7.23;6.63;;;25.10;54.50;;;;;;4932764;29;20464;-84
2021/07/04 03:46:04;;;;;;;5.90;5.40;;;25.00;54.50;;;;;;4934349;29;20423;-85
2021/07/04 03:48:41;;;;;;;6.63;6.03;;;25.10;54.60;;;;;;4937864;29;20514;-84
2021/07/04 03:51:21;;;;;;;7.50;6.30;;;25.00;54.50;;;;;;4936801;29;20451;-84
2021/07/04 03:53:54;;;;;;;6.43;5.80;;;25.10;54.60;;;;;;4937416;29;20430;-84
2021/07/04 03:56:26;;;;;;;7.30;6.60;;;25.10;54.60;;;;;;4936870;29;20427;-84
2021/07/04 03:59:08;;;;;;;;;;;;;;;;;;;;;
2021/07/04 04:05:05;;;;;;;6.00;5.40;;;25.00;54.50;;;;;;4937793;29;20435;-84
2021/07/04 04:08:09;;;;;;;6.80;6.17;;;25.00;54.70;;;;;;4936988;29;20447;-85
2021/07/04 04:10:43;;;;;;;7.33;6.53;;;25.10;54.60;;;;;;4935316;29;20428;-86
2021/07/04 04:13:29;;;;;;;;;;;;;;;;;;;;;
2021/07/04 04:16:45;;;;;;;7.27;6.57;;;25.00;54.60;;;;;;4932822;29;20494;-85
2021/07/04 04:19:22;;;;;;;6.80;6.20;;;25.00;54.70;;;;;;4931375;29;20478;-85
2021/07/04 04:22:02;;;;;;;;;;;;;;;;;;;;;
2021/07/04 04:25:13;;;;;;;8.83;6.10;;;25.00;54.70;;;;;;4932610;29;20467;-85
2021/07/04 04:28:09;;;;;;;6.37;5.77;;;25.00;54.70;;;;;;4931076;29;20415;-85
2021/07/04 04:30:42;;;;;;;5.83;5.33;;;25.00;54.70;;;;;;4932151;29;20449;-85
2021/07/04 04:33:08;;;;;;;6.27;5.73;;;25.00;54.70;;;;;;4916101;29;20451;-85
2021/07/04 04:36:06;;;;;;;6.87;6.27;;;25.00;54.70;;;;;;4932786;29;20427;-84
2021/07/04 04:38:42;;;;;;;8.30;6.20;;;25.00;54.70;;;;;;4876938;29;20474;-83
2021/07/04 04:41:11;;;;;;;8.13;5.93;;;25.00;54.70;;;;;;4847286;29;20429;-83
2021/07/04 04:43:43;;;;;;;7.00;6.40;;;25.00;54.70;;;;;;4861015;29;20433;-83
2021/07/04 04:46:41;;;;;;;7.07;6.37;;;25.00;54.70;;;;;;4860704;29;20443;-83
2021/07/04 04:49:14;;;;;;;6.20;5.60;;;25.00;54.60;;;;;;4861504;29;20450;-83
2021/07/04 04:51:58;;;;;;;7.10;6.40;;;25.00;54.70;;;;;;4863360;29;20415;-83
2021/07/04 04:54:27;;;;;;;5.90;5.23;;;25.00;54.70;;;;;;4862232;29;20487;-85
2021/07/04 04:56:54;;;;;;;6.03;5.43;;;25.00;54.70;;;;;;4860942;29;20880;-85
2021/07/04 04:59:23;;;;;;;7.00;6.30;;;25.00;54.70;;;;;;4876786;29;20504;-86
2021/07/04 05:01:59;;;;;;;6.00;5.40;;;25.00;54.60;;;;;;4861175;29;20414;-86
2021/07/04 05:04:31;;;;;;;6.43;5.83;;;25.00;54.60;;;;;;4860553;29;20442;-86
2021/07/04 05:07:04;;;;;;;6.47;5.87;;;25.00;54.60;;;;;;4876434;29;20510;-86
2021/07/04 05:09:39;;;;;;;6.23;5.63;;;25.00;54.60;;;;;;4861909;29;20414;-85
2021/07/04 05:12:41;;;;;;;6.57;5.97;;;25.10;54.60;;;;;;4860129;29;20451;-86
2021/07/04 05:15:13;;;;;;;5.70;5.20;;;25.00;54.60;;;;;;4881618;29;20420;-85
2021/07/04 05:17:48;;;;;;;5.07;4.63;;;25.10;54.70;;;;;;4900763;29;20559;-85
2021/07/04 05:20:20;;;;;;;6.07;5.47;;;25.10;54.60;;;;;;4914736;29;20421;-85
2021/07/04 05:22:54;;;;;;;5.23;4.73;;;25.10;54.60;;;;;;4913884;29;20435;-85
2021/07/04 05:25:41;;;;;;;6.47;5.87;;;25.00;54.60;;;;;;4899515;29;20438;-84
2021/07/04 05:28:28;;;;;;;6.03;5.43;;;25.00;54.60;;;;;;4915473;29;20420;-85
2021/07/04 05:30:55;;;;;;;5.97;5.43;;;25.10;54.60;;;;;;4930930;29;20417;-85
2021/07/04 05:33:25;;;;;;;5.73;5.23;;;25.00;54.60;;;;;;4915359;29;20416;-86
2021/07/04 05:35:54;;;;;;;6.70;6.10;;;25.10;54.60;;;;;;4921173;29;20423;-85
2021/07/04 05:38:40;;;;;;;6.97;6.00;;;25.00;54.70;;;;;;4920945;29;20464;-85
2021/07/04 05:41:11;;;;;;;5.67;5.17;;;25.10;54.70;;;;;;4922776;29;20424;-85
2021/07/04 05:43:43;;;;;;;6.07;5.47;;;25.10;54.70;;;;;;4936853;29;20485;-85
2021/07/04 05:46:11;;;;;;;6.60;6.00;;;25.10;54.70;;;;;;4936291;29;20955;-84
2021/07/04 05:48:41;;;;;;;6.83;5.70;;;25.10;54.70;;;;;;4919904;29;20443;-85
2021/07/04 05:51:09;;;;;;;5.70;5.20;;;25.10;54.70;;;;;;4917343;29;20459;-85
2021/07/04 05:53:35;;;;;;;5.70;5.20;;;25.00;54.70;;;;;;4931737;29;20416;-84
2021/07/04 05:56:04;;;;;;;8.30;6.73;;;25.00;54.70;;;;;;4930216;29;20450;-86
2021/07/04 05:58:53;;;;;;;7.13;6.53;;;25.10;54.80;;;;;;4931216;29;20463;-87
2021/07/04 06:01:22;;;;;;;7.33;6.20;;;25.10;54.80;;;;;;4932344;29;20400;-86
2021/07/04 06:04:06;;;;;;;6.07;5.47;;;25.10;55.40;;;;;;4933540;29;20416;-86
2021/07/04 06:06:34;;;;;;;6.80;6.10;;;25.10;54.80;;;;;;4933397;29;20450;-83
2021/07/04 06:09:03;;;;;;;7.03;6.43;;;25.00;54.80;;;;;;4932684;29;20430;-82
2021/07/04 06:11:29;;;;;;;7.30;6.63;;;25.10;55.00;;;;;;4931316;29;20467;-83
2021/07/04 06:13:55;;;;;;;7.97;6.77;;;25.00;55.10;;;;;;4932660;29;20440;-84
2021/07/04 06:16:24;;;;;;;7.17;6.47;;;25.00;55.10;;;;;;4932844;29;20420;-83
2021/07/04 06:18:50;;;;;;;9.30;7.53;;;25.10;55.30;;;;;;4932350;29;20970;-83
2021/07/04 06:21:17;;;;;;;9.97;7.10;;;25.00;55.40;;;;;;4932150;29;20475;-83
2021/07/04 06:23:49;;;;;;;7.77;6.90;;;25.00;55.50;;;;;;4933103;29;20397;-83
2021/07/04 06:26:15;;;;;;;7.63;6.53;;;25.00;55.60;;;;;;4933193;29;20448;-85
2021/07/04 06:28:41;;;;;;;7.40;6.70;;;25.00;55.60;;;;;;4933946;29;20490;-84
2021/07/04 06:31:07;;;;;;;7.07;6.37;;;25.00;56.20;;;;;;4931984;29;20440;-84
2021/07/04 06:33:33;;;;;;;7.03;6.33;;;25.00;55.70;;;;;;4932017;29;20994;-83
2021/07/04 06:36:02;;;;;;;8.87;8.03;;;25.00;55.70;;;;;;4931827;29;20430;-84
2021/07/04 06:38:28;;;;;;;7.10;6.40;;;25.00;55.70;;;;;;4935201;29;20471;-84
2021/07/04 06:40:54;;;;;;;6.47;5.87;;;25.00;55.60;;;;;;4936287;29;20416;-83
2021/07/04 06:43:42;;;;;;;;;;;;;;;;;;;;;
2021/07/04 06:46:09;;;;;;;7.13;6.43;;;25.00;55.60;;;;;;4935155;29;20439;-86
2021/07/04 06:48:37;;;;;;;7.40;6.60;;;25.00;55.50;;;;;;4933348;29;20427;-85
2021/07/04 06:51:06;;;;;;;6.47;5.87;;;25.00;55.70;;;;;;4941927;29;20516;-84
2021/07/04 06:53:35;;;;;;;6.80;6.17;;;25.10;55.60;;;;;;4935273;29;20430;-84
2021/07/04 06:56:02;;;;;;;6.57;5.87;;;25.10;55.60;;;;;;4932636;29;20462;-82
2021/07/04 06:58:31;;;;;;;6.80;6.10;;;25.10;55.60;;;;;;4947660;29;20479;-82
2021/07/04 07:00:58;;;;;;;7.10;6.40;;;25.10;55.70;;;;;;4935808;29;20443;-82
2021/07/04 07:03:30;;;;;;;7.70;6.10;;;25.10;55.70;;;;;;4951536;29;20423;-81
2021/07/04 07:05:58;;;;;;;6.87;6.17;;;25.10;55.70;;;;;;4937764;29;20250;-81
2021/07/04 07:08:24;;;;;;;6.30;5.80;;;25.10;55.70;;;;;;4936271;29;20416;-81
2021/07/04 07:10:53;;;;;;;7.00;6.37;;;25.10;55.70;;;;;;4952732;29;20435;-82
2021/07/04 07:13:20;;;;;;;7.40;6.60;;;25.10;55.80;;;;;;4953020;29;20225;-80
2021/07/04 07:15:49;;;;;;;6.67;6.07;;;25.10;55.80;;;;;;4937424;29;20422;-81
2021/07/04 07:18:16;;;;;;;7.47;6.57;;;25.10;55.80;;;;;;4954092;29;20463;-82
2021/07/04 07:20:44;;;;;;;6.23;5.50;;;25.10;55.80;;;;;;4951359;29;20509;-83
2021/07/04 07:23:11;;;;;;;7.33;6.17;;;25.10;55.80;;;;;;4933877;29;20428;-83
2021/07/04 07:25:38;;;;;;;8.07;5.70;;;25.10;55.70;;;;;;4949314;29;20411;-84
2021/07/04 07:28:04;;;;;;;6.43;5.90;;;25.10;55.70;;;;;;4936256;29;20476;-85
2021/07/04 07:30:33;;;;;;;5.67;5.23;;;25.10;55.60;;;;;;4935956;29;20426;-85
2021/07/04 07:33:11;;;;;;;6.73;5.67;;;25.10;55.60;;;;;;4936480;29;20428;-85
2021/07/04 07:35:42;;;;;;;7.03;6.43;;;25.10;55.60;;;;;;4933282;29;20404;-86
2021/07/04 07:38:10;;;;;;;6.10;5.50;;;25.10;55.50;;;;;;4913093;29;20476;-83
2021/07/04 07:40:37;;;;;;;6.50;5.80;;;25.10;55.50;;;;;;4914565;29;20514;-82
2021/07/04 07:43:07;;;;;;;5.70;5.20;;;25.10;55.50;;;;;;4914133;29;20421;-83
2021/07/04 07:45:46;;;;;;;6.37;5.77;;;25.20;55.50;;;;;;4914754;29;20492;-82
2021/07/04 07:48:12;;;;;;;6.60;5.40;;;25.20;55.60;;;;;;4914303;29;20405;-82
2021/07/04 07:50:38;;;;;;;6.40;5.80;;;25.10;55.50;;;;;;4914636;29;20457;-82
2021/07/04 07:53:16;;;;;;;5.83;5.33;;;25.10;55.60;;;;;;4915129;29;20443;-84
2021/07/04 07:55:42;;;;;;;5.87;5.37;;;25.20;55.60;;;;;;4914155;29;20528;-82
2021/07/04 07:58:16;;;;;;;7.77;6.60;;;25.10;55.60;;;;;;4914365;29;20527;-82
2021/07/04 08:00:43;;;;;;;5.73;5.23;;;25.10;55.70;;;;;;4919530;29;20487;-82
2021/07/04 08:03:15;;;;;;;5.80;5.03;;;25.10;55.70;;;;;;4933079;29;20448;-82
2021/07/04 08:05:46;;;;;;;7.20;5.87;;;25.10;55.60;;;;;;4933164;29;20431;-82
2021/07/04 08:08:12;;;;;;;6.20;5.60;;;25.10;55.60;;;;;;4933075;29;20499;-82
2021/07/04 08:10:44;;;;;;;5.67;5.17;;;25.10;55.60;;;;;;4934525;29;20404;-81
2021/07/04 08:13:13;;;;;;;6.20;5.70;;;25.20;55.60;;;;;;4934000;29;20491;-82
2021/07/04 08:15:39;;;;;;;6.80;6.10;;;25.10;55.60;;;;;;4957256;29;20423;-82
2021/07/04 08:18:08;;;;;;;6.50;5.90;;;25.10;55.60;;;;;;4932296;29;20463;-82
2021/07/04 08:20:37;;;;;;;5.80;5.30;;;25.10;55.60;;;;;;4932786;29;20420;-81
2021/07/04 08:23:03;;;;;;;6.27;5.60;;;25.10;55.50;;;;;;4932638;29;20424;-83
2021/07/04 08:25:49;;;;;;;6.00;5.40;;;25.20;55.70;;;;;;4932836;29;20510;-83
2021/07/04 08:28:19;;;;;;;6.10;5.60;;;25.20;55.60;;;;;;4930965;29;20431;-84
2021/07/04 08:30:50;;;;;;;6.80;6.30;;;25.20;55.70;;;;;;4935676;29;20495;-84
2021/07/04 08:33:18;;;;;;;6.20;5.07;;;25.20;55.70;;;;;;4936405;29;20503;-84
2021/07/04 08:35:53;;;;;;;6.47;5.87;;;25.20;55.70;;;;;;4934564;29;20443;-83
2021/07/04 08:41:42;;;;;;;6.60;5.90;;;25.20;55.60;;;;;;4937296;29;20396;-83
2021/07/04 08:44:15;;;;;;;5.57;5.07;;;25.10;55.70;;;;;;4936099;29;20416;-84
2021/07/04 08:46:53;;;;;;;5.43;4.93;;;25.20;55.70;;;;;;4920508;29;20452;-83
2021/07/04 08:49:32;;;;;;;5.77;5.17;;;25.20;55.70;;;;;;4889771;29;20514;-84
2021/07/04 08:52:00;;;;;;;5.80;5.10;;;25.20;55.70;;;;;;4936090;29;20408;-84
2021/07/04 08:54:29;;;;;;;7.03;5.93;;;25.20;55.70;;;;;;4920017;29;20451;-84
2021/07/04 08:56:55;;;;;;;5.77;5.17;;;25.20;55.70;;;;;;4932554;29;20439;-83
2021/07/04 08:59:35;;;;;;;5.80;5.30;;;25.20;55.70;;;;;;4931224;29;20467;-84
2021/07/04 09:02:10;;;;;;;5.40;4.93;;;25.20;55.80;;;;;;4936858;29;20416;-88
2021/07/04 09:04:37;;;;;;;6.10;5.60;;;25.20;55.70;;;;;;4936472;29;20406;-86
2021/07/04 09:07:16;;;;;;;;;;;;;;;;;;;;;
2021/07/04 09:09:49;;;;;;;6.13;5.53;;;25.20;55.70;;;;;;4922331;29;20446;-85
2021/07/04 09:12:28;;;;;;;6.50;5.53;;;25.20;55.60;;;;;;4937271;29;20463;-85
2021/07/04 09:14:54;;;;;;;6.43;5.40;;;25.20;55.60;;;;;;4918411;29;20432;-83
2021/07/04 09:17:52;;;;;;;5.77;5.10;;;25.20;55.60;;;;;;4926435;29;20424;-84
2021/07/04 09:20:28;;;;;;;6.20;5.70;;;25.20;55.60;;;;;;4849821;29;20426;-84
2021/07/04 09:22:58;;;;;;;5.57;5.07;;;25.20;55.70;;;;;;4880186;29;20498;-85
2021/07/04 09:25:31;;;;;;;5.67;5.17;;;25.20;55.60;;;;;;4863726;29;20431;-90
2021/07/04 09:28:22;;;;;;;6.00;5.40;;;25.20;55.60;;;;;;4878131;29;20406;-85
2021/07/04 09:30:55;;;;;;;6.03;5.53;;;25.20;55.60;;;;;;4880855;29;20445;-85
2021/07/04 09:39:46;;;;;;;6.10;5.53;;;25.20;55.70;;;;;;4880032;29;20458;-85
2021/07/04 09:42:14;;;;;;;6.43;5.83;;;25.20;55.80;;;;;;4849404;29;20426;-86
2021/07/04 09:44:40;;;;;;;6.63;5.53;;;25.10;55.60;;;;;;4864179;29;20486;-83
2021/07/04 09:47:22;;;;;;;9.60;5.50;;;25.20;55.60;;;;;;4874333;29;20441;-83
2021/07/04 09:50:03;;;;;;;5.67;5.17;;;25.20;55.60;;;;;;4874066;29;20834;-83
2021/07/04 09:52:39;;;;;;;6.07;5.57;;;25.20;55.60;;;;;;4857777;29;20446;-82
2021/07/04 09:55:09;;;;;;;5.90;5.40;;;25.20;55.70;;;;;;4857652;29;20443;-82
2021/07/04 09:57:56;;;;;;;5.83;5.33;;;25.20;55.80;;;;;;4892194;29;20484;-82
2021/07/04 10:00:27;;;;;;;6.80;6.10;;;25.20;55.80;;;;;;4911673;29;20460;-83
2021/07/04 10:03:25;;;;;;;5.13;4.63;;;25.20;55.90;;;;;;4911498;29;20424;-83
2021/07/04 10:06:08;;;;;;;7.60;5.60;;;25.20;55.80;;;;;;4897362;29;20432;-83
2021/07/04 10:08:42;;;;;;;5.60;4.90;;;25.20;55.90;;;;;;4912726;29;20447;-83
2021/07/04 10:11:16;;;;;;;8.40;5.00;;;25.20;55.90;;;;;;4911684;29;20432;-83
2021/07/04 10:13:44;;;;;;;6.03;5.50;;;25.20;55.80;;;;;;4910255;29;20512;-83
2021/07/04 10:16:17;;;;;;;5.20;4.70;;;25.30;55.80;;;;;;4895596;29;20429;-83
2021/07/04 10:18:50;;;;;;;5.80;5.30;;;25.30;55.70;;;;;;4910845;29;20482;-83
2021/07/04 10:21:20;;;;;;;5.53;4.97;;;25.30;55.70;;;;;;4895609;29;20443;-83
2021/07/04 10:23:50;;;;;;;5.27;4.77;;;25.20;55.50;;;;;;4927433;29;20528;-84
2021/07/04 10:30:30;;;;;;;4.87;4.47;;;25.30;55.40;;;;;;4854404;29;20423;-84
2021/07/04 10:36:21;;;;;;;5.60;5.10;;;25.20;55.60;;;;;;4854405;29;20398;-83
2021/07/04 10:39:00;;;;;;;6.00;5.50;;;25.20;55.60;;;;;;4853541;29;20475;-83
2021/07/04 10:41:34;;;;;;;6.97;5.93;;;25.30;55.70;;;;;;4839323;29;20404;-83
2021/07/04 10:50:24;;;;;;;5.00;4.50;;;25.20;55.70;;;;;;4854425;29;20414;-82
2021/07/04 10:52:53;;;;;;;5.43;4.93;;;25.20;55.80;;;;;;4855343;29;20501;-83
2021/07/04 10:55:38;;;;;;;5.50;5.00;;;25.20;55.90;;;;;;4853885;29;20842;-82
2021/07/04 10:58:24;;;;;;;5.30;4.63;;;25.30;55.90;;;;;;4840073;29;20491;-83
2021/07/04 11:01:06;;;;;;;5.37;4.87;;;25.30;55.90;;;;;;4910610;29;20449;-83
2021/07/04 11:03:59;;;;;;;5.33;4.50;;;25.30;55.80;;;;;;4911123;29;20419;-83
2021/07/04 11:07:19;;;;;;;5.73;5.20;;;25.30;55.70;;;;;;4910762;29;20500;-84
2021/07/04 11:10:02;;;;;;;5.00;4.60;;;25.30;55.70;;;;;;4912713;29;20432;-83
2021/07/04 11:12:59;;;;;;;4.90;4.40;;;25.30;55.70;;;;;;4912004;29;20428;-84
2021/07/04 11:16:02;;;;;;;;;;;;;;;;;;;;;
2021/07/04 11:19:03;;;;;;;5.50;5.00;;;25.30;55.80;;;;;;4825579;29;20573;-84
2021/07/04 11:21:57;;;;;;;5.27;4.73;;;25.30;55.80;;;;;;4858024;29;20441;-84
2021/07/04 11:27:37;;;;;;;5.73;5.13;;;25.30;55.80;;;;;;4876634;29;20417;-83
2021/07/04 11:30:21;;;;;;;5.63;5.13;;;25.30;55.70;;;;;;4859945;29;20446;-83
2021/07/04 11:32:51;;;;;;;4.50;4.10;;;25.30;55.70;;;;;;4860248;29;21056;-82
2021/07/04 11:35:19;;;;;;;4.73;4.33;;;25.30;55.70;;;;;;4860087;29;20450;-83
2021/07/04 11:37:50;;;;;;;5.43;4.97;;;25.30;55.70;;;;;;4860098;29;20459;-82
2021/07/04 11:44:04;;;;;;;4.80;4.40;;;25.30;55.60;;;;;;4854445;29;20973;-82
2021/07/04 11:46:35;;;;;;;5.10;4.67;;;25.30;55.50;;;;;;4841432;29;20434;-83
2021/07/04 11:49:15;;;;;;;5.27;4.83;;;25.30;55.50;;;;;;4842161;29;20423;-83
2021/07/04 11:52:21;;;;;;;4.70;4.30;;;25.30;55.50;;;;;;4873789;29;20427;-85
2021/07/04 11:55:24;;;;;;;5.10;4.60;;;25.30;55.40;;;;;;4936729;29;20434;-85
2021/07/04 11:58:17;;;;;;;4.30;3.97;;;25.30;55.50;;;;;;4952549;29;21011;-84
2021/07/04 12:01:07;;;;;;;4.63;4.23;;;25.30;55.40;;;;;;4936922;29;20475;-85
2021/07/04 12:03:34;;;;;;;5.20;4.70;;;25.30;55.40;;;;;;4951493;29;20930;-85
2021/07/04 12:06:25;;;;;;;4.97;4.53;;;25.30;55.40;;;;;;4951300;29;20439;-86
2021/07/04 12:12:17;;;;;;;7.67;4.10;;;25.30;55.40;;;;;;4938418;29;20398;-86
2021/07/04 12:15:05;;;;;;;5.30;4.80;;;25.30;55.40;;;;;;4953309;29;20428;-86
2021/07/04 12:17:32;;;;;;;4.03;3.73;;;25.20;55.30;;;;;;4937472;29;20475;-86
2021/07/04 12:20:38;;;;;;;5.17;4.67;;;25.30;55.30;;;;;;4938161;29;20408;-87
2021/07/04 12:23:09;;;;;;;3.90;3.60;;;25.30;55.30;;;;;;4898812;29;20425;-87
2021/07/04 12:26:14;;;;;;;5.07;4.60;;;25.30;55.30;;;;;;4898987;29;20414;-87
2021/07/04 12:28:41;;;;;;;5.60;5.10;;;25.30;55.30;;;;;;4883667;29;20433;-84
2021/07/04 12:31:07;;;;;;;4.43;4.03;;;25.30;55.30;;;;;;4877371;29;20426;-83
2021/07/04 12:33:34;;;;;;;4.63;4.23;;;25.30;55.30;;;;;;4893256;29;20432;-83
2021/07/04 12:36:11;;;;;;;4.37;3.97;;;25.30;55.30;;;;;;4893041;29;20425;-82
2021/07/04 12:38:52;;;;;;;4.53;4.13;;;25.30;55.30;;;;;;4877961;29;20473;-83
2021/07/04 12:41:47;;;;;;;4.90;4.50;;;25.30;55.20;;;;;;4877141;29;20449;-83
2021/07/04 12:44:21;;;;;;;4.50;4.10;;;25.30;55.30;;;;;;4877689;29;20433;-83
2021/07/04 12:46:52;;;;;;;4.93;4.30;;;25.30;55.30;;;;;;4892758;29;20421;-83
2021/07/04 12:49:36;;;;;;;;;;;;;;;;;;;;;
2021/07/04 12:52:07;;;;;;;4.70;4.30;;;25.30;55.20;;;;;;4874500;29;20478;-83
2021/07/04 12:55:14;;;;;;;4.80;4.23;;;25.30;55.20;;;;;;4873599;29;20498;-83
2021/07/04 12:57:40;;;;;;;4.00;3.57;;;25.30;55.20;;;;;;4911260;29;20518;-83
2021/07/04 13:00:11;;;;;;;3.80;3.50;;;25.30;55.20;;;;;;4931566;29;20420;-83
2021/07/04 13:02:45;;;;;;;4.10;3.70;;;25.30;55.20;;;;;;4930986;29;20187;-83
2021/07/04 13:05:13;;;;;;;4.10;3.70;;;25.30;55.10;;;;;;4931160;29;20770;-83
2021/07/04 13:07:44;;;;;;;4.67;4.20;;;25.30;55.10;;;;;;4919830;29;20459;-83
2021/07/04 13:10:12;;;;;;;4.70;4.30;;;25.30;55.10;;;;;;4912373;29;20429;-83
2021/07/04 13:12:41;;;;;;;4.23;3.83;;;25.30;55.10;;;;;;4912350;29;20428;-83
2021/07/04 13:15:09;;;;;;;4.50;4.10;;;25.30;55.10;;;;;;4911975;29;20479;-83
2021/07/04 13:17:44;;;;;;;4.53;4.10;;;25.30;55.10;;;;;;4912599;29;20421;-83
2021/07/04 13:20:20;;;;;;;4.10;3.70;;;25.30;55.10;;;;;;4896895;29;20429;-83
2021/07/04 13:22:57;;;;;;;4.27;3.87;;;25.30;55.10;;;;;;4911631;29;20480;-83
2021/07/04 13:25:33;;;;;;;4.80;4.10;;;25.30;55.10;;;;;;4912073;29;20432;-83
2021/07/04 13:28:13;;;;;;;4.30;3.90;;;25.30;55.10;;;;;;4911715;29;20417;-83
2021/07/04 13:30:52;;;;;;;4.17;3.80;;;25.30;55.10;;;;;;4912126;29;20439;-83
2021/07/04 13:33:36;;;;;;;8.40;4.30;;;25.30;55.20;;;;;;4911677;29;20416;-83
2021/07/04 13:36:28;;;;;;;4.30;3.90;;;25.30;55.10;;;;;;4914176;29;20409;-84
2021/07/04 13:38:59;;;;;;;4.10;3.80;;;25.30;55.10;;;;;;4910293;29;20470;-84
2021/07/04 13:41:34;;;;;;;4.07;3.77;;;25.30;55.20;;;;;;4912705;29;20421;-87
2021/07/04 13:44:03;;;;;;;4.90;4.50;;;25.30;55.30;;;;;;4926973;29;20421;-84
2021/07/04 13:46:36;;;;;;;3.83;3.53;;;25.30;55.30;;;;;;4910123;29;20424;-84
2021/07/04 13:49:05;;;;;;;4.40;3.90;;;25.30;55.30;;;;;;4911587;29;20443;-83
2021/07/04 13:51:37;;;;;;;3.67;3.37;;;25.30;55.20;;;;;;4910527;29;20421;-83
2021/07/04 13:54:04;;;;;;;4.80;4.30;;;25.30;55.10;;;;;;4910978;29;20524;-83
2021/07/04 13:56:36;;;;;;;4.40;4.00;;;25.30;55.20;;;;;;4911576;29;20432;-84
2021/07/04 13:59:15;;;;;;;;;;;;;;;;;;;;;
2021/07/04 14:01:41;;;;;;;4.50;4.00;;;25.30;55.30;;;;;;4930625;29;20486;-84
2021/07/04 14:04:07;;;;;;;5.03;3.83;;;25.40;55.30;;;;;;4930514;29;20435;-85
2021/07/04 14:06:39;;;;;;;4.80;4.17;;;25.40;55.30;;;;;;4930077;29;20180;-84
2021/07/04 14:09:16;;;;;;;;;;;;;;;;;;;;;
2021/07/04 14:15:38;;;;;;;4.00;3.70;;;25.40;55.30;;;;;;4909910;29;20814;-84
2021/07/04 14:18:08;;;;;;;4.20;3.80;;;25.40;55.20;;;;;;4917768;29;20471;-85
2021/07/04 14:20:53;;;;;;;4.50;4.10;;;25.30;55.20;;;;;;4934007;29;20454;-83
2021/07/04 14:23:19;;;;;;;3.93;3.57;;;25.40;55.40;;;;;;4932514;29;20468;-83
2021/07/04 14:26:01;;;;;;;4.47;4.07;;;25.40;55.30;;;;;;4930850;29;20515;-83
2021/07/04 14:28:28;;;;;;;3.63;3.33;;;25.40;55.20;;;;;;4931703;29;20186;-83
2021/07/04 14:31:01;;;;;;;4.40;4.00;;;25.40;55.30;;;;;;4930545;29;20452;-87
2021/07/04 14:33:27;;;;;;;3.60;3.30;;;25.40;55.10;;;;;;4930517;29;20431;-83